createdAt,value
2023-05-22T00:01:19.360Z,10.68
2023-05-22T00:03:48.894Z,11.05
2023-05-22T00:06:15.939Z,10.73
2023-05-22T00:08:43.125Z,10.75
2023-05-22T00:11:10.047Z,10.07
2023-05-22T00:13:37.335Z,10.30
2023-05-22T00:16:04.551Z,9.55
2023-05-22T00:18:31.722Z,10.10
2023-05-22T00:20:59.813Z,10.32
2023-05-22T00:23:28.495Z,9.68
2023-05-22T00:25:55.348Z,10.40
2023-05-22T00:28:22.518Z,10.43
2023-05-22T00:30:49.327Z,9.38
2023-05-22T00:33:16.604Z,10.20
2023-05-22T00:35:43.625Z,9.60
2023-05-22T00:38:28.274Z,9.30
2023-05-22T00:40:55.123Z,9.30
2023-05-22T00:43:22.200Z,9.57
2023-05-22T00:45:49.038Z,9.52
2023-05-22T00:48:16.222Z,9.70
2023-05-22T00:50:43.039Z,9.98
2023-05-22T00:53:11.958Z,9.75
2023-05-22T00:55:39.113Z,9.23
2023-05-22T00:58:08.574Z,9.85
2023-05-22T01:00:36.973Z,9.88
2023-05-22T01:03:05.666Z,9.10
2023-05-22T01:05:33.019Z,9.60
2023-05-22T01:07:59.987Z,9.43
2023-05-22T01:10:29.324Z,9.68
2023-05-22T01:13:03.646Z,9.50
2023-05-22T01:15:37.422Z,8.70
2023-05-22T01:18:12.460Z,9.18
2023-05-22T01:20:44.788Z,9.07
2023-05-22T01:23:49.894Z,8.80
2023-05-22T01:26:43.632Z,9.20
2023-05-22T01:29:34.852Z,8.80
2023-05-22T01:32:06.469Z,9.30
2023-05-22T01:34:36.572Z,8.82
2023-05-22T01:37:05.051Z,9.10
2023-05-22T01:39:33.027Z,8.70
2023-05-22T01:42:00.264Z,9.05
2023-05-22T01:44:27.524Z,8.40
2023-05-22T01:46:54.355Z,8.55
2023-05-22T01:49:22.835Z,8.65
2023-05-22T01:51:53.606Z,9.05
2023-05-22T01:54:28.454Z,8.43
2023-05-22T01:57:02.730Z,8.70
2023-05-22T01:59:37.767Z,8.80
2023-05-22T02:02:07.887Z,7.88
2023-05-22T02:04:40.126Z,8.20
2023-05-22T02:07:10.755Z,8.65
2023-05-22T02:09:40.832Z,7.60
2023-05-22T02:12:08.952Z,7.97
2023-05-22T02:14:37.117Z,7.63
2023-05-22T02:17:05.771Z,7.30
2023-05-22T02:19:36.655Z,7.90
2023-05-22T02:22:03.712Z,7.40
2023-05-22T02:24:31.319Z,8.00
2023-05-22T02:26:58.332Z,7.93
2023-05-22T02:29:25.607Z,7.45
2023-05-22T02:31:54.500Z,7.82
2023-05-22T02:34:21.737Z,7.47
2023-05-22T02:36:50.973Z,8.45
2023-05-22T02:39:18.406Z,8.10
2023-05-22T02:41:45.849Z,7.72
2023-05-22T02:44:12.995Z,7.90
2023-05-22T02:46:39.887Z,7.95
2023-05-22T02:49:07.158Z,8.10
2023-05-22T02:51:34.209Z,8.30
2023-05-22T02:54:02.799Z,7.88
2023-05-22T02:56:29.843Z,7.97
2023-05-22T02:58:59.864Z,8.25
2023-05-22T03:01:26.854Z,8.18
2023-05-22T03:03:55.284Z,8.50
2023-05-22T03:06:23.174Z,8.55
2023-05-22T03:08:50.386Z,8.07
2023-05-22T03:11:18.642Z,7.88
2023-05-22T03:13:45.787Z,8.27
2023-05-22T03:16:12.755Z,8.13
2023-05-22T03:18:39.982Z,8.27
2023-05-22T03:21:06.818Z,8.13
2023-05-22T03:23:34.051Z,7.82
2023-05-22T03:26:01.009Z,7.88
2023-05-22T03:28:29.729Z,8.02
2023-05-22T03:30:56.647Z,7.90
2023-05-22T03:33:23.936Z,7.90
2023-05-22T03:35:50.916Z,7.88
2023-05-22T03:38:18.074Z,7.40
2023-05-22T03:40:44.917Z,7.30
2023-05-22T03:43:11.889Z,7.53
2023-05-22T03:45:40.133Z,7.47
2023-05-22T03:48:07.497Z,7.55
2023-05-22T03:50:34.377Z,7.23
2023-05-22T03:53:01.774Z,7.47
2023-05-22T03:55:30.773Z,6.90
2023-05-22T03:57:57.787Z,7.00
2023-05-22T04:00:26.376Z,6.80
2023-05-22T04:02:59.072Z,6.80
2023-05-22T04:05:26.279Z,6.95
2023-05-22T04:07:53.599Z,7.00
2023-05-22T04:10:23.325Z,6.63
2023-05-22T04:12:50.975Z,7.13
2023-05-22T04:15:17.880Z,7.03
2023-05-22T04:17:44.954Z,7.10
2023-05-22T04:20:14.086Z,7.10
2023-05-22T04:22:41.737Z,7.18
2023-05-22T04:25:09.023Z,6.88
2023-05-22T04:27:36.231Z,6.65
2023-05-22T04:30:03.962Z,6.38
2023-05-22T04:32:31.226Z,6.57
2023-05-22T04:35:00.435Z,6.60
2023-05-22T04:37:29.154Z,7.30
2023-05-22T04:39:58.203Z,6.65
2023-05-22T04:42:25.686Z,6.57
2023-05-22T04:44:53.116Z,6.72
2023-05-22T04:47:20.516Z,6.70
2023-05-22T04:49:47.404Z,6.53
2023-05-22T04:52:14.616Z,6.80
2023-05-22T04:54:44.556Z,6.28
2023-05-22T04:57:11.917Z,5.80
2023-05-22T04:59:39.199Z,6.18
2023-05-22T05:02:06.383Z,6.10
2023-05-22T05:04:33.582Z,6.28
2023-05-22T05:07:00.811Z,6.00
2023-05-22T05:09:27.687Z,6.15
2023-05-22T05:11:56.025Z,5.93
2023-05-22T05:14:22.974Z,5.90
2023-05-22T05:16:52.113Z,5.50
2023-05-22T05:19:21.446Z,5.82
2023-05-22T05:21:49.890Z,6.00
2023-05-22T05:24:20.199Z,6.32
2023-05-22T05:26:47.626Z,6.03
2023-05-22T05:29:15.924Z,5.43
2023-05-22T05:31:43.349Z,5.70
2023-05-22T05:34:10.254Z,5.40
2023-05-22T05:36:37.541Z,5.70
2023-05-22T05:39:04.522Z,5.78
2023-05-22T05:41:31.694Z,5.80
2023-05-22T05:44:00.125Z,6.22
2023-05-22T05:46:28.977Z,6.00
2023-05-22T05:48:55.988Z,5.13
2023-05-22T05:51:23.126Z,6.15
2023-05-22T05:53:50.245Z,5.25
2023-05-22T05:56:17.411Z,5.50
2023-05-22T05:58:44.598Z,5.97
2023-05-22T06:01:12.114Z,5.28
2023-05-22T06:03:40.489Z,5.68
2023-05-22T06:06:08.045Z,5.45
2023-05-22T06:08:35.009Z,5.53
2023-05-22T06:11:02.697Z,5.32
2023-05-22T06:13:29.558Z,5.60
2023-05-22T06:15:58.684Z,5.60
2023-05-22T06:18:27.466Z,5.93
2023-05-22T06:20:57.715Z,4.88
2023-05-22T06:23:24.757Z,5.38
2023-05-22T06:25:52.034Z,5.25
2023-05-22T06:28:18.913Z,5.65
2023-05-22T06:30:46.238Z,6.47
2023-05-22T06:33:14.472Z,6.28
2023-05-22T06:35:42.391Z,6.50
2023-05-22T06:38:10.633Z,6.13
2023-05-22T06:40:38.126Z,6.43
2023-05-22T06:43:05.195Z,6.53
2023-05-22T06:45:32.125Z,6.30
2023-05-22T06:47:59.350Z,6.28
2023-05-22T06:50:26.221Z,5.80
2023-05-22T06:52:53.433Z,6.05
2023-05-22T06:55:21.832Z,6.90
2023-05-22T06:57:49.118Z,6.65
2023-05-22T07:00:20.943Z,6.63
2023-05-22T07:02:49.251Z,5.88
2023-05-22T07:05:16.266Z,4.88
2023-05-22T07:07:43.502Z,5.03
2023-05-22T07:10:11.222Z,5.05
2023-05-22T07:12:39.393Z,5.30
2023-05-22T07:15:10.914Z,5.55
2023-05-22T07:17:38.509Z,5.22
2023-05-22T07:20:06.844Z,5.20
2023-05-22T07:22:33.987Z,5.13
2023-05-22T07:25:01.203Z,5.40
2023-05-22T07:27:28.351Z,6.20
2023-05-22T07:29:56.700Z,5.68
2023-05-22T07:32:23.852Z,5.18
2023-05-22T07:34:50.889Z,6.15
2023-05-22T07:37:18.767Z,5.95
2023-05-22T07:39:46.803Z,5.28
2023-05-22T07:42:16.441Z,5.53
2023-05-22T07:44:43.389Z,6.10
2023-05-22T07:47:12.429Z,5.57
2023-05-22T07:49:39.306Z,5.35
2023-05-22T07:52:07.270Z,5.88
2023-05-22T07:54:34.185Z,6.10
2023-05-22T07:57:04.035Z,5.95
2023-05-22T07:59:30.935Z,6.20
2023-05-22T08:01:58.483Z,6.25
2023-05-22T08:04:27.481Z,5.68
2023-05-22T08:06:54.425Z,5.47
2023-05-22T08:09:21.614Z,5.28
2023-05-22T08:11:49.102Z,5.55
2023-05-22T08:14:16.120Z,5.70
2023-05-22T08:16:43.412Z,5.60
2023-05-22T08:19:10.458Z,5.82
2023-05-22T08:21:40.019Z,6.90
2023-05-22T08:24:08.468Z,6.15
2023-05-22T08:26:35.698Z,5.88
2023-05-22T08:29:02.645Z,5.57
2023-05-22T08:31:29.721Z,5.57
2023-05-22T08:34:02.490Z,6.18
2023-05-22T08:36:31.524Z,5.97
2023-05-22T08:39:00.160Z,6.40
2023-05-22T08:41:27.278Z,6.15
2023-05-22T08:43:54.545Z,7.07
2023-05-22T08:46:26.207Z,5.43
2023-05-22T08:48:57.471Z,5.40
2023-05-22T08:51:29.177Z,5.80
2023-05-22T08:53:57.001Z,6.10
2023-05-22T08:56:27.867Z,5.88
2023-05-22T08:58:57.393Z,6.53
2023-05-22T09:01:24.868Z,6.13
2023-05-22T09:03:52.123Z,6.53
2023-05-22T09:06:19.034Z,5.65
2023-05-22T09:08:46.421Z,5.63
2023-05-22T09:11:13.394Z,5.72
2023-05-22T09:13:42.058Z,6.07
2023-05-22T09:16:10.179Z,6.10
2023-05-22T09:18:38.317Z,5.72
2023-05-22T09:21:11.408Z,5.78
2023-05-22T09:23:49.934Z,5.90
2023-05-22T09:26:16.854Z,5.75
2023-05-22T09:28:47.454Z,5.68
2023-05-22T09:31:14.943Z,5.78
2023-05-22T09:33:44.018Z,5.88
2023-05-22T09:36:11.455Z,5.93
2023-05-22T09:38:39.149Z,5.60
2023-05-22T09:41:06.415Z,6.03
2023-05-22T09:43:34.256Z,6.68
2023-05-22T09:46:06.249Z,7.05
2023-05-22T09:48:36.550Z,7.68
2023-05-22T09:51:05.087Z,6.13
2023-05-22T09:53:36.106Z,6.88
2023-05-22T09:56:08.347Z,6.20
2023-05-22T09:58:38.772Z,5.78
2023-05-22T10:01:10.481Z,5.70
2023-05-22T10:03:40.094Z,6.00
2023-05-22T10:06:09.158Z,5.50
2023-05-22T10:08:42.312Z,5.72
2023-05-22T10:11:11.013Z,5.72
2023-05-22T10:13:38.488Z,6.28
2023-05-22T10:16:08.090Z,6.57
2023-05-22T10:18:37.991Z,6.22
2023-05-22T10:21:06.344Z,6.90
2023-05-22T10:23:33.245Z,5.38
2023-05-22T10:26:00.410Z,6.22
2023-05-22T10:28:33.694Z,5.85
2023-05-22T10:31:05.605Z,6.20
2023-05-22T10:33:40.149Z,6.05
2023-05-22T10:36:10.274Z,6.40
2023-05-22T10:38:50.870Z,6.45
2023-05-22T10:41:18.507Z,5.80
2023-05-22T10:43:49.296Z,5.82
2023-05-22T10:46:17.023Z,5.90
2023-05-22T10:48:46.719Z,6.15
2023-05-22T10:51:15.569Z,5.75
2023-05-22T10:53:45.334Z,5.97
2023-05-22T10:56:13.975Z,6.18
2023-05-22T10:58:43.975Z,5.90
2023-05-22T11:01:13.541Z,5.90
2023-05-22T11:03:56.500Z,5.53
2023-05-22T11:06:37.839Z,5.68
2023-05-22T11:09:22.035Z,5.40
2023-05-22T11:12:20.276Z,5.15
2023-05-22T11:14:55.516Z,5.72
2023-05-22T11:17:23.971Z,5.63
2023-05-22T11:20:00.716Z,5.20
2023-05-22T11:22:32.451Z,5.32
2023-05-22T11:25:00.317Z,5.38
2023-05-22T11:27:28.157Z,6.20
2023-05-22T11:29:56.255Z,5.72
2023-05-22T11:32:24.787Z,5.47
2023-05-22T11:34:51.782Z,5.78
2023-05-22T11:37:21.854Z,5.88
2023-05-22T11:39:55.932Z,5.10
2023-05-22T11:42:23.429Z,5.30
2023-05-22T11:44:50.617Z,5.40
2023-05-22T11:47:18.100Z,4.90
2023-05-22T11:49:45.113Z,5.20
2023-05-22T11:52:12.475Z,4.90
2023-05-22T11:54:40.682Z,5.07
2023-05-22T11:57:08.786Z,4.88
2023-05-22T11:59:36.142Z,4.75
2023-05-22T12:02:03.578Z,4.28
2023-05-22T12:04:30.678Z,4.32
2023-05-22T12:06:58.121Z,4.85
2023-05-22T12:09:27.837Z,4.97
2023-05-22T12:11:58.177Z,5.15
2023-05-22T12:14:26.819Z,4.80
2023-05-22T12:16:54.409Z,4.30
2023-05-22T12:19:21.928Z,5.00
2023-05-22T12:21:50.926Z,4.45
2023-05-22T12:24:23.253Z,4.40
2023-05-22T12:26:51.455Z,4.50
2023-05-22T12:29:22.152Z,4.20
2023-05-22T12:31:50.009Z,4.32
2023-05-22T12:34:19.063Z,4.97
2023-05-22T12:36:47.315Z,4.63
2023-05-22T12:39:17.742Z,4.75
2023-05-22T12:41:46.305Z,4.80
2023-05-22T12:44:14.824Z,4.05
2023-05-22T12:46:43.513Z,4.20
2023-05-22T12:49:11.310Z,4.40
2023-05-22T12:51:38.573Z,4.43
2023-05-22T12:54:05.695Z,3.95
2023-05-22T12:56:32.986Z,4.15
2023-05-22T12:59:00.178Z,4.07
2023-05-22T13:01:27.563Z,4.30
2023-05-22T13:03:55.827Z,3.92
2023-05-22T13:06:23.155Z,4.20
2023-05-22T13:08:50.036Z,3.85
2023-05-22T13:11:17.534Z,4.10
2023-05-22T13:13:44.389Z,4.25
2023-05-22T13:16:11.744Z,4.10
2023-05-22T13:18:38.668Z,4.38
2023-05-22T13:21:07.442Z,4.45
2023-05-22T13:23:34.380Z,4.40
2023-05-22T13:26:02.478Z,4.07
2023-05-22T13:28:29.440Z,4.45
2023-05-22T13:30:56.843Z,4.55
2023-05-22T13:33:24.540Z,4.57
2023-05-22T13:35:51.895Z,4.85
2023-05-22T13:38:20.228Z,4.20
2023-05-22T13:40:48.670Z,4.35
2023-05-22T13:43:16.003Z,3.90
2023-05-22T13:45:43.263Z,3.90
2023-05-22T13:48:10.451Z,4.00
2023-05-22T13:50:37.628Z,4.05
2023-05-22T13:53:04.541Z,4.15
2023-05-22T13:55:33.113Z,4.13
2023-05-22T13:57:59.942Z,3.97
2023-05-22T14:00:27.268Z,4.13
2023-05-22T14:02:54.250Z,4.32
2023-05-22T14:05:21.697Z,4.32
2023-05-22T14:07:48.548Z,4.20
2023-05-22T14:10:16.024Z,4.18
2023-05-22T14:12:44.231Z,4.28
2023-05-22T14:15:11.979Z,4.30
2023-05-22T14:17:38.895Z,4.22
2023-05-22T14:20:07.444Z,3.90
2023-05-22T14:22:44.475Z,3.88
2023-05-22T14:25:11.857Z,3.88
2023-05-22T14:27:38.738Z,4.13
2023-05-22T14:30:15.731Z,3.88
2023-05-22T14:32:43.393Z,3.90
2023-05-22T14:35:10.661Z,3.60
2023-05-22T14:37:37.618Z,4.00
2023-05-22T14:40:05.635Z,4.10
2023-05-22T14:42:32.515Z,3.75
2023-05-22T14:45:00.002Z,3.47
2023-05-22T14:47:28.299Z,3.75
2023-05-22T14:49:57.748Z,4.30
2023-05-22T14:52:33.464Z,3.70
2023-05-22T14:55:00.659Z,4.07
2023-05-22T14:57:27.454Z,3.78
2023-05-22T14:59:54.616Z,4.00
2023-05-22T15:02:22.521Z,3.60
2023-05-22T15:04:52.848Z,3.53
2023-05-22T15:07:22.366Z,4.15
2023-05-22T15:09:49.478Z,4.10
2023-05-22T15:12:16.297Z,3.78
2023-05-22T15:14:44.872Z,4.30
2023-05-22T15:17:12.001Z,4.43
2023-05-22T15:19:38.953Z,4.75
2023-05-22T15:22:19.397Z,6.05
2023-05-22T15:24:48.402Z,4.57
2023-05-22T15:27:15.889Z,4.40
2023-05-22T15:29:43.114Z,4.50
2023-05-22T15:32:10.156Z,4.43
2023-05-22T15:34:37.358Z,4.88
2023-05-22T15:37:04.485Z,4.85
2023-05-22T15:39:33.000Z,4.90
2023-05-22T15:42:06.529Z,4.20
2023-05-22T15:44:34.256Z,4.57
2023-05-22T15:47:01.236Z,5.10
2023-05-22T15:49:31.092Z,4.78
2023-05-22T15:51:58.682Z,4.63
2023-05-22T15:54:26.152Z,4.55
2023-05-22T15:56:54.333Z,5.00
2023-05-22T15:59:21.531Z,4.80
2023-05-22T16:01:48.561Z,4.43
2023-05-22T16:04:16.439Z,4.63
2023-05-22T16:06:43.285Z,4.90
2023-05-22T16:09:10.519Z,5.13
2023-05-22T16:11:37.831Z,4.60
2023-05-22T16:14:06.395Z,5.13
2023-05-22T16:16:33.269Z,4.40
2023-05-22T16:19:00.422Z,4.82
2023-05-22T16:21:27.460Z,4.55
2023-05-22T16:23:54.641Z,5.30
2023-05-22T16:26:21.790Z,5.13
2023-05-22T16:28:48.640Z,4.72
2023-05-22T16:31:19.314Z,5.10
2023-05-22T16:33:46.878Z,5.20
2023-05-22T16:36:13.990Z,5.43
2023-05-22T16:38:42.216Z,5.55
2023-05-22T16:41:09.137Z,5.97
2023-05-22T16:43:37.720Z,5.40
2023-05-22T16:46:04.758Z,5.47
2023-05-22T16:48:33.040Z,4.93
2023-05-22T16:50:59.950Z,5.30
2023-05-22T16:53:27.238Z,5.45
2023-05-22T16:55:54.377Z,5.32
2023-05-22T16:58:22.066Z,5.38
2023-05-22T17:00:49.098Z,5.38
2023-05-22T17:03:16.865Z,5.13
2023-05-22T17:05:47.281Z,5.22
2023-05-22T17:08:14.612Z,4.95
2023-05-22T17:10:41.715Z,5.28
2023-05-22T17:13:09.180Z,5.00
2023-05-22T17:15:36.041Z,4.97
2023-05-22T17:18:04.255Z,5.28
2023-05-22T17:20:34.049Z,5.28
2023-05-22T17:23:02.700Z,5.05
2023-05-22T17:25:29.556Z,5.68
2023-05-22T17:27:56.749Z,5.50
2023-05-22T17:30:23.874Z,5.35
2023-05-22T17:32:53.328Z,5.10
2023-05-22T17:35:20.336Z,5.30
2023-05-22T17:37:47.208Z,4.85
2023-05-22T17:40:15.648Z,4.90
2023-05-22T17:42:42.682Z,4.95
2023-05-22T17:45:10.477Z,5.53
2023-05-22T17:47:37.402Z,5.38
2023-05-22T17:50:04.949Z,6.00
2023-05-22T17:52:31.956Z,5.00
2023-05-22T17:54:59.207Z,5.47
2023-05-22T17:57:27.687Z,5.13
2023-05-22T17:59:54.784Z,5.43
2023-05-22T18:02:21.682Z,4.88
2023-05-22T18:04:49.104Z,5.22
2023-05-22T18:07:17.126Z,5.68
2023-05-22T18:09:44.502Z,5.30
2023-05-22T18:12:30.143Z,6.32
2023-05-22T18:14:59.682Z,6.47
2023-05-22T18:17:26.782Z,5.95
2023-05-22T18:19:54.112Z,6.25
2023-05-22T18:22:21.862Z,5.65
2023-05-22T18:24:48.795Z,5.85
2023-05-22T18:27:15.622Z,6.28
2023-05-22T18:29:43.036Z,6.25
2023-05-22T18:32:13.493Z,6.45
2023-05-22T18:34:40.769Z,6.70
2023-05-22T18:37:07.755Z,6.63
2023-05-22T18:39:34.750Z,6.72
2023-05-22T18:42:01.599Z,7.38
2023-05-22T18:44:28.848Z,7.68
2023-05-22T18:46:55.770Z,7.75
2023-05-22T18:49:24.508Z,7.75
2023-05-22T18:51:51.386Z,8.20
2023-05-22T18:54:18.864Z,8.13
2023-05-22T18:56:45.947Z,8.13
2023-05-22T18:59:13.232Z,8.27
2023-05-22T19:01:40.302Z,8.20
2023-05-22T19:04:08.102Z,8.13
2023-05-22T19:06:36.734Z,8.55
2023-05-22T19:09:04.907Z,8.20
2023-05-22T19:11:31.849Z,8.57
2023-05-22T19:14:00.067Z,9.40
2023-05-22T19:16:26.950Z,10.40
2023-05-22T19:18:53.994Z,10.65
2023-05-22T19:21:20.919Z,10.00
2023-05-22T19:23:49.421Z,9.68
2023-05-22T19:26:16.333Z,11.25
2023-05-22T19:28:43.393Z,11.35
2023-05-22T19:31:10.452Z,10.13
2023-05-22T19:33:37.452Z,11.00
2023-05-22T19:36:06.561Z,11.48
2023-05-22T19:38:34.061Z,11.80
2023-05-22T19:41:02.402Z,11.65
2023-05-22T19:43:31.448Z,12.13
2023-05-22T19:45:58.450Z,10.55
2023-05-22T19:48:25.725Z,11.05
2023-05-22T19:50:52.862Z,11.65
2023-05-22T19:53:19.811Z,12.20
2023-05-22T19:55:47.448Z,13.50
2023-05-22T19:58:16.131Z,12.75
2023-05-22T20:00:43.302Z,10.88
2023-05-22T20:03:10.527Z,11.82
2023-05-22T20:05:37.859Z,12.57
2023-05-22T20:08:05.048Z,11.38
2023-05-22T20:10:33.316Z,11.93
2023-05-22T20:13:00.355Z,12.27
2023-05-22T20:15:30.451Z,12.63
2023-05-22T20:17:58.302Z,11.68
2023-05-22T20:20:25.232Z,11.23
2023-05-22T20:22:54.109Z,11.65
2023-05-22T20:25:21.541Z,10.88
2023-05-22T20:27:48.840Z,11.18
2023-05-22T20:30:16.063Z,10.90
2023-05-22T20:32:47.068Z,12.73
2023-05-22T20:35:14.074Z,11.68
2023-05-22T20:37:41.605Z,12.30
2023-05-22T20:40:09.588Z,10.73
2023-05-22T20:42:37.539Z,10.75
2023-05-22T20:45:05.593Z,9.02
2023-05-22T20:47:33.922Z,8.75
2023-05-22T20:50:02.287Z,9.07
2023-05-22T20:52:31.845Z,8.57
2023-05-22T20:54:59.157Z,9.95
2023-05-22T20:57:26.435Z,9.13
2023-05-22T20:59:53.989Z,8.68
2023-05-22T21:02:21.389Z,8.95
2023-05-22T21:04:48.244Z,8.55
2023-05-22T21:07:16.896Z,9.20
2023-05-22T21:09:43.851Z,8.73
2023-05-22T21:12:11.193Z,9.20
2023-05-22T21:14:37.991Z,9.50
2023-05-22T21:17:05.564Z,8.60
2023-05-22T21:19:32.501Z,8.13
2023-05-22T21:21:59.732Z,8.80
2023-05-22T21:24:28.245Z,7.90
2023-05-22T21:26:55.114Z,8.00
2023-05-22T21:29:21.953Z,7.90
2023-05-22T21:31:49.200Z,7.43
2023-05-22T21:34:16.172Z,7.82
2023-05-22T21:36:43.535Z,7.35
2023-05-22T21:39:10.703Z,7.32
2023-05-22T21:41:39.290Z,7.75
2023-05-22T21:44:06.169Z,7.60
2023-05-22T21:46:33.405Z,7.75
2023-05-22T21:49:02.845Z,7.72
2023-05-22T21:51:30.059Z,8.10
2023-05-22T21:53:56.865Z,8.55
2023-05-22T21:56:24.050Z,8.25
2023-05-22T21:58:52.185Z,7.93
2023-05-22T22:01:19.512Z,8.38
2023-05-22T22:03:46.645Z,9.23
2023-05-22T22:06:13.873Z,8.07
2023-05-22T22:08:40.821Z,8.15
2023-05-22T22:11:08.072Z,8.32
2023-05-22T22:13:34.957Z,8.10
2023-05-22T22:16:03.770Z,8.45
2023-05-22T22:18:33.577Z,7.63
2023-05-22T22:21:02.593Z,7.93
2023-05-22T22:23:29.574Z,7.90
2023-05-22T22:25:56.972Z,8.00
2023-05-22T22:28:23.833Z,8.43
2023-05-22T22:30:50.872Z,8.38
2023-05-22T22:33:19.039Z,8.60
2023-05-22T22:35:46.232Z,8.48
2023-05-22T22:38:13.055Z,8.63
2023-05-22T22:40:40.351Z,9.25
2023-05-22T22:43:07.238Z,8.45
2023-05-22T22:45:34.427Z,7.93
2023-05-22T22:48:01.346Z,8.57
2023-05-22T22:50:30.081Z,8.20
2023-05-22T22:52:56.879Z,8.52
2023-05-22T22:55:24.469Z,8.82
2023-05-22T22:57:51.554Z,8.80
2023-05-22T23:00:19.289Z,8.93
2023-05-22T23:02:46.775Z,8.73
2023-05-22T23:05:15.730Z,8.68
2023-05-22T23:07:44.350Z,8.77
2023-05-22T23:10:11.374Z,9.82
2023-05-22T23:12:38.509Z,9.40
2023-05-22T23:15:06.835Z,8.88
2023-05-22T23:17:33.982Z,8.82
2023-05-22T23:20:01.306Z,9.23
2023-05-22T23:22:28.111Z,8.95
2023-05-22T23:24:56.653Z,8.95
2023-05-22T23:27:23.439Z,9.70
2023-05-22T23:29:50.276Z,9.73
2023-05-22T23:32:17.362Z,10.07
2023-05-22T23:34:44.358Z,11.10
2023-05-22T23:37:11.540Z,10.90
2023-05-22T23:39:38.547Z,10.77
2023-05-22T23:42:09.762Z,12.05
2023-05-22T23:44:37.207Z,11.30
2023-05-22T23:47:04.541Z,11.45
2023-05-22T23:49:31.518Z,11.48
2023-05-22T23:51:58.677Z,11.85
2023-05-22T23:54:25.655Z,11.45
2023-05-22T23:56:52.559Z,12.10
2023-05-22T23:59:21.139Z,12.10
